Time;durP1;ratioP1;P1;durP2;ratioP2;P2;SDS_P1;SDS_P2;PMS_P1;PMS_P2;Temp;Humidity;BMP_temperature;BMP_pressure;BME280_temperature;BME280_humidity;BME280_pressure;Samples;Min_cycle;Max_cycle;Signal;HPM_P1;HPM_P2
2021/12/02 00:02:12;;;;;;;13.30;12.00;;;;;;;;;;12501243;28;20045;-73
2021/12/02 00:08:14;;;;;;;12.02;10.43;;;;;;;;;;12502545;28;20046;-73
2021/12/02 00:14:23;;;;;;;;;;;;;;;;;;12502485;28;20033;-73
2021/12/02 00:26:46;;;;;;;10.77;9.68;;;;;;;;;;12501695;28;20053;-73
2021/12/02 00:32:48;;;;;;;9.43;8.40;;;;;;;;;;12482852;28;20033;-72
2021/12/02 00:38:51;;;;;;;12.07;10.97;;;;;;;;;;12499975;28;20029;-72
2021/12/02 00:44:53;;;;;;;13.43;12.02;;;;;;;;;;12499491;28;20045;-73
2021/12/02 00:50:55;;;;;;;17.27;15.50;;;;;;;;;;12499056;28;20041;-73
2021/12/02 00:56:57;;;;;;;16.13;13.35;;;;;;;;;;12499915;28;20306;-73
2021/12/02 01:02:59;;;;;;;13.70;12.25;;;;;;;;;;12500005;28;20058;-72
2021/12/02 01:09:01;;;;;;;13.27;11.87;;;;;;;;;;12499539;28;20041;-73
2021/12/02 01:15:04;;;;;;;13.75;12.38;;;;;;;;;;12499419;28;20052;-74
2021/12/02 01:21:06;;;;;;;11.48;10.25;;;;;;;;;;12498801;28;20044;-73
2021/12/02 01:27:10;;;;;;;13.32;11.98;;;;;;;;;;12498109;28;20048;-73
2021/12/02 01:33:14;;;;;;;13.25;11.85;;;;;;;;;;12498713;28;20394;-74
2021/12/02 01:39:16;;;;;;;13.32;11.95;;;;;;;;;;12497153;28;20044;-73
2021/12/02 01:45:20;;;;;;;12.52;11.25;;;;;;;;;;12479380;28;20041;-74
2021/12/02 01:51:23;;;;;;;15.73;14.10;;;;;;;;;;12496219;28;20045;-73
2021/12/02 01:57:35;;;;;;;11.82;10.60;;;;;;;;;;12497312;28;20041;-73
2021/12/02 02:03:37;;;;;;;9.40;8.55;;;;;;;;;;12495654;28;20052;-73
2021/12/02 02:09:39;;;;;;;12.80;11.50;;;;;;;;;;12496824;28;20037;-73
2021/12/02 02:15:45;;;;;;;11.82;10.63;;;;;;;;;;12496443;28;20493;-73
2021/12/02 02:21:46;;;;;;;11.77;10.23;;;;;;;;;;12494947;28;20041;-73
2021/12/02 02:27:48;;;;;;;10.98;9.90;;;;;;;;;;12495820;28;20045;-73
2021/12/02 02:33:53;;;;;;;9.20;8.35;;;;;;;;;;12477802;28;20029;-73
2021/12/02 02:39:54;;;;;;;8.88;8.07;;;;;;;;;;12495752;28;20045;-73
2021/12/02 02:45:56;;;;;;;7.82;7.05;;;;;;;;;;12495218;28;20045;-73
2021/12/02 02:51:58;;;;;;;9.73;8.73;;;;;;;;;;12493731;28;20398;-73
2021/12/02 02:58:12;;;;;;;7.97;7.25;;;;;;;;;;12493446;28;20052;-73
2021/12/02 03:04:33;;;;;;;8.15;7.32;;;;;;;;;;12493449;28;20060;-74
2021/12/02 03:10:49;;;;;;;9.15;8.25;;;;;;;;;;12495346;28;20057;-73
2021/12/02 03:16:50;;;;;;;7.25;6.55;;;;;;;;;;12493088;28;20034;-73
2021/12/02 03:22:52;;;;;;;6.88;6.28;;;;;;;;;;12493250;28;20390;-74
2021/12/02 03:28:54;;;;;;;10.20;7.15;;;;;;;;;;12493932;28;20044;-73
2021/12/02 03:34:56;;;;;;;8.25;7.25;;;;;;;;;;12494746;28;20395;-73
2021/12/02 03:40:57;;;;;;;7.88;7.18;;;;;;;;;;12493967;28;20037;-73
2021/12/02 03:47:00;;;;;;;5.72;5.07;;;;;;;;;;12476073;28;20042;-73
2021/12/02 03:53:02;;;;;;;6.40;5.85;;;;;;;;;;12493937;28;20033;-73
2021/12/02 03:59:04;;;;;;;7.05;6.40;;;;;;;;;;12493460;28;20037;-73
2021/12/02 04:05:06;;;;;;;5.47;4.97;;;;;;;;;;12492057;28;20502;-74
2021/12/02 04:11:55;;;;;;;7.45;6.75;;;;;;;;;;12500153;28;20474;-72
2021/12/02 04:17:42;;;;;;;7.47;6.85;;;;;;;;;;12503884;28;20105;-73
2021/12/02 04:23:44;;;;;;;9.45;8.35;;;;;;;;;;12502091;28;20048;-73
2021/12/02 04:29:46;;;;;;;6.32;5.72;;;;;;;;;;12501586;28;20049;-73
2021/12/02 04:35:47;;;;;;;7.88;7.18;;;;;;;;;;12500970;28;20387;-73
2021/12/02 04:41:49;;;;;;;9.65;8.70;;;;;;;;;;12501057;28;20041;-73
2021/12/02 04:47:51;;;;;;;6.72;5.80;;;;;;;;;;12499939;28;20053;-73
2021/12/02 04:53:52;;;;;;;5.13;4.70;;;;;;;;;;12499164;28;20048;-74
2021/12/02 04:59:54;;;;;;;7.47;6.78;;;;;;;;;;12498784;28;20034;-74
2021/12/02 05:05:56;;;;;;;6.70;6.15;;;;;;;;;;12498643;28;20419;-74
2021/12/02 05:11:57;;;;;;;8.32;7.53;;;;;;;;;;12498576;28;20463;-73
2021/12/02 05:17:59;;;;;;;8.63;7.82;;;;;;;;;;12499048;28;20041;-73
2021/12/02 05:24:01;;;;;;;6.75;6.15;;;;;;;;;;12499028;28;20033;-72
2021/12/02 05:30:03;;;;;;;5.65;5.10;;;;;;;;;;12497919;28;20050;-72
2021/12/02 05:36:05;;;;;;;5.88;5.38;;;;;;;;;;12497840;28;20037;-73
2021/12/02 05:42:07;;;;;;;5.15;4.65;;;;;;;;;;12498172;28;20498;-72
2021/12/02 05:48:08;;;;;;;6.10;5.55;;;;;;;;;;12496527;28;20046;-73
2021/12/02 05:54:10;;;;;;;2.97;2.70;;;;;;;;;;12496191;28;20399;-73
2021/12/02 06:00:12;;;;;;;5.50;5.00;;;;;;;;;;12495506;28;20041;-73
2021/12/02 06:06:15;;;;;;;5.38;4.72;;;;;;;;;;12496836;28;20046;-73
2021/12/02 06:12:16;;;;;;;;;;;;;;;;;;12495659;28;20402;-73
2021/12/02 06:18:18;;;;;;;5.60;5.10;;;;;;;;;;12495080;28;19923;-73
2021/12/02 06:24:27;;;;;;;8.85;8.05;;;;;;;;;;12494744;28;20034;-73
2021/12/02 06:30:29;;;;;;;9.90;8.98;;;;;;;;;;12510143;28;20041;-73
2021/12/02 06:36:30;;;;;;;10.23;8.77;;;;;;;;;;12524760;28;20064;-73
2021/12/02 06:42:32;;;;;;;8.35;7.57;;;;;;;;;;12496818;28;20037;-73
2021/12/02 06:48:34;;;;;;;6.43;5.78;;;;;;;;;;12514011;28;20038;-74
2021/12/02 06:54:36;;;;;;;7.85;7.10;;;;;;;;;;12526950;28;20033;-73
2021/12/02 07:00:38;;;;;;;7.95;7.15;;;;;;;;;;12496342;28;20037;-73
2021/12/02 07:06:40;;;;;;;6.88;6.28;;;;;;;;;;12499834;28;20050;-73
2021/12/02 07:12:44;;;;;;;11.50;10.43;;;;;;;;;;12516696;28;20195;-73
2021/12/02 07:18:52;;;;;;;11.05;9.75;;;;;;;;;;12514205;28;20934;-73
2021/12/02 07:24:54;;;;;;;7.80;7.15;;;;;;;;;;12492751;28;20044;-73
2021/12/02 07:30:56;;;;;;;7.53;6.82;;;;;;;;;;12501479;28;20025;-74
2021/12/02 07:36:58;;;;;;;9.32;8.45;;;;;;;;;;12513417;28;20028;-73
2021/12/02 07:42:59;;;;;;;9.07;8.18;;;;;;;;;;12516808;28;20052;-73
2021/12/02 07:49:01;;;;;;;10.32;9.27;;;;;;;;;;12519198;28;20045;-73
2021/12/02 07:55:06;;;;;;;8.40;7.43;;;;;;;;;;12507885;28;20029;-73
2021/12/02 08:01:09;;;;;;;7.13;5.72;;;;;;;;;;12502725;28;20734;-73
2021/12/02 08:07:11;;;;;;;6.80;6.10;;;;;;;;;;12511337;28;20430;-73
2021/12/02 08:13:14;;;;;;;4.95;4.47;;;;;;;;;;12523863;28;20279;-74
2021/12/02 08:19:15;;;;;;;;;;;;;;;;;;12510915;28;20509;-74
2021/12/02 08:25:17;;;;;;;5.43;4.95;;;;;;;;;;12512966;28;19924;-74
2021/12/02 08:31:19;;;;;;;5.93;5.33;;;;;;;;;;12521784;28;20502;-74
2021/12/02 08:37:21;;;;;;;7.65;6.93;;;;;;;;;;12496771;28;20040;-74
2021/12/02 08:43:23;;;;;;;6.03;5.45;;;;;;;;;;12518539;28;20045;-74
2021/12/02 08:49:25;;;;;;;6.93;6.22;;;;;;;;;;12509227;28;20033;-73
2021/12/02 08:55:29;;;;;;;6.72;5.43;;;;;;;;;;12508356;28;20041;-73
2021/12/02 09:01:33;;;;;;;8.13;7.32;;;;;;;;;;12507732;28;20454;-73
2021/12/02 09:07:34;;;;;;;19.17;15.75;;;;;;;;;;12505939;28;20045;-74
2021/12/02 09:13:36;;;;;;;8.52;7.72;;;;;;;;;;12505515;28;20037;-74
2021/12/02 09:19:38;;;;;;;7.22;6.53;;;;;;;;;;12511930;28;20055;-74
2021/12/02 09:25:40;;;;;;;7.28;6.57;;;;;;;;;;12511498;28;20059;-73
2021/12/02 09:31:42;;;;;;;11.83;10.60;;;;;;;;;;12508449;28;20033;-74
2021/12/02 09:37:43;;;;;;;8.63;7.72;;;;;;;;;;12514296;28;20370;-75
2021/12/02 09:43:45;;;;;;;11.93;10.60;;;;;;;;;;12489187;28;20044;-73
2021/12/02 09:49:47;;;;;;;17.33;14.60;;;;;;;;;;12505912;28;20045;-73
2021/12/02 09:56:24;;;;;;;13.63;12.25;;;;;;;;;;12502080;28;20037;-73
2021/12/02 10:02:20;;;;;;;24.30;21.45;;;;;;;;;;12505671;28;20041;-74
2021/12/02 10:08:28;;;;;;;12.80;11.52;;;;;;;;;;12507569;28;20040;-74
2021/12/02 10:14:37;;;;;;;9.82;8.82;;;;;;;;;;12514302;28;20040;-74
2021/12/02 10:20:50;;;;;;;9.77;8.68;;;;;;;;;;12510900;28;20442;-74
2021/12/02 10:26:57;;;;;;;19.48;17.50;;;;;;;;;;12503633;28;20483;-74
2021/12/02 10:32:59;;;;;;;14.48;12.98;;;;;;;;;;12521377;28;20039;-74
2021/12/02 10:39:07;;;;;;;23.35;20.10;;;;;;;;;;12517449;28;20048;-73
2021/12/02 10:45:21;;;;;;;13.32;11.95;;;;;;;;;;12493273;28;20107;-73
2021/12/02 10:51:43;;;;;;;12.70;11.50;;;;;;;;;;12493447;28;20501;-73
2021/12/02 10:57:46;;;;;;;18.00;16.23;;;;;;;;;;12501079;28;20386;-73
2021/12/02 11:04:04;;;;;;;13.18;11.77;;;;;;;;;;12512699;28;20107;-73
2021/12/02 11:10:08;;;;;;;14.77;13.27;;;;;;;;;;12499107;28;20041;-73
2021/12/02 11:16:30;;;;;;;10.25;9.25;;;;;;;;;;12517009;28;20033;-73
2021/12/02 11:22:31;;;;;;;10.15;9.23;;;;;;;;;;12514657;28;20025;-73
2021/12/02 11:28:35;;;;;;;11.40;10.20;;;;;;;;;;12513209;28;20045;-73
2021/12/02 11:34:37;;;;;;;10.80;9.77;;;;;;;;;;12507900;28;20231;-73
2021/12/02 11:40:43;;;;;;;8.32;7.53;;;;;;;;;;12524123;28;20044;-72
2021/12/02 11:46:45;;;;;;;9.05;8.25;;;;;;;;;;12520011;28;20033;-75
2021/12/02 11:52:47;;;;;;;9.00;8.15;;;;;;;;;;12510266;28;20041;-75
2021/12/02 11:58:49;;;;;;;7.35;6.68;;;;;;;;;;12499437;28;20692;-74
2021/12/02 12:05:00;;;;;;;7.07;5.90;;;;;;;;;;12503389;28;20041;-75
2021/12/02 12:11:23;;;;;;;7.70;7.00;;;;;;;;;;12515659;28;20063;-74
2021/12/02 12:17:39;;;;;;;8.15;7.35;;;;;;;;;;12493653;28;20029;-75
2021/12/02 12:23:43;;;;;;;8.02;7.22;;;;;;;;;;12505393;28;20374;-75
2021/12/02 12:29:47;;;;;;;9.55;8.55;;;;;;;;;;12512479;28;20060;-75
2021/12/02 12:42:11;;;;;;;12.95;11.63;;;;;;;;;;12527079;28;20047;-73
2021/12/02 12:48:18;;;;;;;7.72;6.95;;;;;;;;;;12519010;28;20052;-74
2021/12/02 12:54:22;;;;;;;7.95;7.15;;;;;;;;;;12517935;28;20052;-75
2021/12/02 13:00:44;;;;;;;6.25;5.50;;;;;;;;;;12527650;28;20363;-75
2021/12/02 13:07:00;;;;;;;7.72;6.38;;;;;;;;;;12513030;28;20057;-77
2021/12/02 13:13:06;;;;;;;9.27;7.88;;;;;;;;;;12515651;28;20033;-75
2021/12/02 13:19:16;;;;;;;8.25;7.45;;;;;;;;;;12508766;28;20036;-76
2021/12/02 13:25:40;;;;;;;5.22;4.72;;;;;;;;;;12518576;28;20020;-75
2021/12/02 13:31:46;;;;;;;5.47;4.80;;;;;;;;;;12490585;28;20390;-75
2021/12/02 13:38:00;;;;;;;5.13;4.68;;;;;;;;;;12501161;28;20032;-74
2021/12/02 13:44:04;;;;;;;4.00;3.60;;;;;;;;;;12511641;28;20037;-74
2021/12/02 13:50:07;;;;;;;3.58;3.28;;;;;;;;;;12503169;28;20041;-75
2021/12/02 13:56:09;;;;;;;6.68;6.07;;;;;;;;;;12507226;28;20199;-75
2021/12/02 14:02:18;;;;;;;4.32;3.92;;;;;;;;;;12507755;28;20600;-74
2021/12/02 14:08:21;;;;;;;8.82;7.95;;;;;;;;;;12498700;28;20041;-76
2021/12/02 14:14:23;;;;;;;9.48;8.57;;;;;;;;;;12509093;28;20037;-75
2021/12/02 14:20:39;;;;;;;5.97;5.40;;;;;;;;;;12508300;28;20072;-74
2021/12/02 14:26:42;;;;;;;6.13;5.10;;;;;;;;;;12487968;28;20057;-74
2021/12/02 14:32:45;;;;;;;10.30;9.30;;;;;;;;;;12511075;28;20025;-75
2021/12/02 14:38:48;;;;;;;8.73;7.82;;;;;;;;;;12512585;28;20128;-75
2021/12/02 14:44:50;;;;;;;12.18;11.00;;;;;;;;;;12503337;28;20029;-75
2021/12/02 14:51:00;;;;;;;6.55;5.95;;;;;;;;;;12514221;28;20033;-75
2021/12/02 14:57:03;;;;;;;6.40;5.80;;;;;;;;;;12504752;28;20033;-75
2021/12/02 15:03:05;;;;;;;5.93;5.35;;;;;;;;;;12528219;28;20044;-73
2021/12/02 15:09:27;;;;;;;5.25;4.80;;;;;;;;;;12528769;28;20061;-74
2021/12/02 15:15:31;;;;;;;6.10;5.07;;;;;;;;;;12526355;28;20394;-73
2021/12/02 15:21:38;;;;;;;7.55;6.82;;;;;;;;;;12543441;28;20029;-74
2021/12/02 15:27:59;;;;;;;7.05;6.28;;;;;;;;;;12543864;28;20037;-74
2021/12/02 15:34:02;;;;;;;7.72;6.93;;;;;;;;;;12544011;28;20467;-73
2021/12/02 15:40:05;;;;;;;10.70;9.60;;;;;;;;;;12541780;28;20037;-73
2021/12/02 15:46:09;;;;;;;8.63;6.68;;;;;;;;;;12543174;28;20049;-73
2021/12/02 15:52:17;;;;;;;6.72;6.13;;;;;;;;;;12542694;28;20033;-74
2021/12/02 15:58:19;;;;;;;5.28;4.70;;;;;;;;;;12542908;28;20048;-74
2021/12/02 16:04:35;;;;;;;6.32;5.72;;;;;;;;;;12547006;28;20044;-74
2021/12/02 16:16:40;;;;;;;4.25;3.90;;;;;;;;;;12550866;28;20040;-73
2021/12/02 16:22:43;;;;;;;5.97;5.47;;;;;;;;;;12552170;28;20079;-74
2021/12/02 16:29:01;;;;;;;8.07;7.28;;;;;;;;;;12550168;28;20044;-73
2021/12/02 16:35:04;;;;;;;5.40;5.00;;;;;;;;;;12550416;28;20037;-73
2021/12/02 16:41:14;;;;;;;9.55;8.15;;;;;;;;;;12550896;28;20048;-73
2021/12/02 16:47:21;;;;;;;9.50;7.13;;;;;;;;;;12549297;28;20498;-73
2021/12/02 16:53:23;;;;;;;5.22;4.72;;;;;;;;;;12550174;28;20032;-73
2021/12/02 16:59:24;;;;;;;9.25;8.25;;;;;;;;;;12549764;28;20048;-73
2021/12/02 17:05:26;;;;;;;9.38;8.50;;;;;;;;;;12532033;28;20490;-73
2021/12/02 17:11:29;;;;;;;7.82;7.07;;;;;;;;;;12549219;28;20394;-74
2021/12/02 17:17:31;;;;;;;9.70;8.70;;;;;;;;;;12548279;28;20481;-75
2021/12/02 17:23:39;;;;;;;10.93;9.63;;;;;;;;;;12547319;28;20280;-74
2021/12/02 17:29:44;;;;;;;14.23;12.77;;;;;;;;;;12530478;28;20052;-74
2021/12/02 17:35:46;;;;;;;9.85;8.85;;;;;;;;;;12549084;28;20036;-74
2021/12/02 17:41:48;;;;;;;11.63;8.93;;;;;;;;;;12530300;28;20053;-74
2021/12/02 17:47:49;;;;;;;8.45;7.43;;;;;;;;;;12547639;28;20045;-74
2021/12/02 17:53:51;;;;;;;8.40;7.28;;;;;;;;;;12546959;28;20044;-74
2021/12/02 17:59:53;;;;;;;10.57;9.40;;;;;;;;;;12545645;28;20028;-73
2021/12/02 18:05:55;;;;;;;11.70;10.13;;;;;;;;;;12546874;28;20052;-74
2021/12/02 18:11:58;;;;;;;6.38;5.78;;;;;;;;;;12545020;28;20047;-74
2021/12/02 18:18:00;;;;;;;13.32;10.60;;;;;;;;;;12546074;28;20073;-74
2021/12/02 18:24:02;;;;;;;11.05;9.68;;;;;;;;;;12528049;28;20036;-74
2021/12/02 18:30:04;;;;;;;17.38;15.02;;;;;;;;;;12543495;28;20401;-74
2021/12/02 18:36:27;;;;;;;18.90;16.90;;;;;;;;;;12546222;28;20038;-73
2021/12/02 18:42:29;;;;;;;14.95;12.77;;;;;;;;;;12543931;28;20048;-74
2021/12/02 18:48:31;;;;;;;14.82;12.55;;;;;;;;;;12543390;28;20052;-75
2021/12/02 18:54:33;;;;;;;14.30;12.02;;;;;;;;;;12526836;28;20051;-74
2021/12/02 19:00:35;;;;;;;16.80;13.23;;;;;;;;;;12543108;28;20052;-74
2021/12/02 19:31:47;;;;;;;17.23;14.82;;;;;;;;;;12543622;28;20045;-74
2021/12/02 19:37:49;;;;;;;19.83;16.45;;;;;;;;;;12548424;28;20040;-75
2021/12/02 19:43:50;;;;;;;15.73;14.07;;;;;;;;;;12551742;28;20394;-73
2021/12/02 19:49:52;;;;;;;14.45;12.80;;;;;;;;;;12551506;28;20045;-75
2021/12/02 19:55:54;;;;;;;15.15;12.77;;;;;;;;;;12552918;28;20032;-75
2021/12/02 20:01:56;;;;;;;15.38;13.65;;;;;;;;;;12550824;28;20393;-76
2021/12/02 20:07:58;;;;;;;21.55;19.23;;;;;;;;;;12534125;28;20061;-73
2021/12/02 20:13:59;;;;;;;14.63;13.18;;;;;;;;;;12550806;28;20040;-74
2021/12/02 20:20:05;;;;;;;8.80;7.72;;;;;;;;;;12551955;28;20036;-78
2021/12/02 20:26:06;;;;;;;6.68;6.07;;;;;;;;;;12550157;28;20056;-75
2021/12/02 20:32:08;;;;;;;7.13;5.60;;;;;;;;;;12551010;28;20033;-73
2021/12/02 20:38:10;;;;;;;6.63;5.97;;;;;;;;;;12550845;28;20496;-74
2021/12/02 20:44:12;;;;;;;5.10;4.70;;;;;;;;;;12549096;28;20032;-75
2021/12/02 20:50:16;;;;;;;4.82;4.43;;;;;;;;;;12549184;28;20041;-73
2021/12/02 20:56:19;;;;;;;3.50;2.97;;;;;;;;;;12548764;28;20032;-74
2021/12/02 21:02:22;;;;;;;2.55;2.35;;;;;;;;;;12548088;28;20048;-74
2021/12/02 21:08:27;;;;;;;1.63;1.52;;;;;;;;;;12548081;28;20160;-76
2021/12/02 21:14:29;;;;;;;1.40;1.30;;;;;;;;;;12549164;28;20029;-75
2021/12/02 21:20:32;;;;;;;0.80;0.80;;;;;;;;;;12548670;28;20037;-74
2021/12/02 21:26:34;;;;;;;0.88;0.88;;;;;;;;;;12547818;28;20041;-74
2021/12/02 21:32:36;;;;;;;0.52;0.50;;;;;;;;;;12548441;28;20044;-74
2021/12/02 21:38:42;;;;;;;0.40;0.40;;;;;;;;;;12547038;28;20470;-73
2021/12/02 21:44:45;;;;;;;0.52;0.52;;;;;;;;;;12548229;28;20041;-74
2021/12/02 21:50:46;;;;;;;0.50;0.50;;;;;;;;;;12546014;28;20044;-74
2021/12/02 21:56:56;;;;;;;0.47;0.40;;;;;;;;;;12547450;28;20029;-74
2021/12/02 22:02:57;;;;;;;0.55;0.55;;;;;;;;;;12545863;28;20049;-74
2021/12/02 22:08:59;;;;;;;0.50;0.50;;;;;;;;;;12546780;28;20048;-73
2021/12/02 22:15:01;;;;;;;1.00;1.00;;;;;;;;;;12546270;28;20040;-74
2021/12/02 22:21:03;;;;;;;1.45;1.10;;;;;;;;;;12546170;28;20033;-73
2021/12/02 22:27:05;;;;;;;0.70;0.70;;;;;;;;;;12545916;28;20041;-74
2021/12/02 22:33:06;;;;;;;1.02;0.93;;;;;;;;;;12546021;28;20029;-74
2021/12/02 22:39:09;;;;;;;1.65;0.60;;;;;;;;;;12545519;28;20482;-74
2021/12/02 22:45:11;;;;;;;1.27;1.17;;;;;;;;;;12544994;28;20386;-74
2021/12/02 22:51:13;;;;;;;0.98;0.85;;;;;;;;;;12543970;28;20051;-73
2021/12/02 22:57:15;;;;;;;0.93;0.82;;;;;;;;;;12544791;28;20048;-73
2021/12/02 23:03:17;;;;;;;1.30;1.10;;;;;;;;;;12543599;28;20056;-73
2021/12/02 23:09:18;;;;;;;1.80;0.90;;;;;;;;;;12544360;28;20049;-73
2021/12/02 23:15:21;;;;;;;0.60;0.60;;;;;;;;;;12543852;28;20039;-73
2021/12/02 23:21:22;;;;;;;1.67;1.57;;;;;;;;;;12544169;28;20033;-74
2021/12/02 23:27:35;;;;;;;8.25;5.00;;;;;;;;;;12542727;28;20041;-74
2021/12/02 23:33:48;;;;;;;6.03;4.55;;;;;;;;;;12544204;28;20037;-74
2021/12/02 23:39:49;;;;;;;7.32;6.63;;;;;;;;;;12543950;28;20055;-74
2021/12/02 23:45:52;;;;;;;2.75;2.55;;;;;;;;;;12543725;28;20041;-74
2021/12/02 23:51:54;;;;;;;2.03;1.88;;;;;;;;;;12542215;28;20082;-74
2021/12/02 23:57:55;;;;;;;1.60;1.50;;;;;;;;;;12543278;28;20044;-74
